sensor_id;sensor_type;location;lat;lon;timestamp;temperature;humidity
13231;DHT22;6681;53.254;10.398;2023-06-14T00:00:39;17.90;99.90
13231;DHT22;6681;53.254;10.398;2023-06-14T00:03:09;17.90;1.00
13231;DHT22;6681;53.254;10.398;2023-06-14T00:05:37;17.90;85.30
13231;DHT22;6681;53.254;10.398;2023-06-14T00:08:09;17.80;1.00
13231;DHT22;6681;53.254;10.398;2023-06-14T00:10:36;17.80;99.90
13231;DHT22;6681;53.254;10.398;2023-06-14T00:13:02;17.90;99.90
13231;DHT22;6681;53.254;10.398;2023-06-14T00:15:30;17.80;99.90
13231;DHT22;6681;53.254;10.398;2023-06-14T00:17:56;17.80;1.00
13231;DHT22;6681;53.254;10.398;2023-06-14T00:20:26;17.80;99.90
13231;DHT22;6681;53.254;10.398;2023-06-14T00:22:53;17.80;1.00
13231;DHT22;6681;53.254;10.398;2023-06-14T00:25:21;17.70;1.00
13231;DHT22;6681;53.254;10.398;2023-06-14T00:27:47;17.60;99.90
13231;DHT22;6681;53.254;10.398;2023-06-14T00:30:13;17.70;99.90
13231;DHT22;6681;53.254;10.398;2023-06-14T00:32:39;17.70;99.90
13231;DHT22;6681;53.254;10.398;2023-06-14T00:35:05;17.70;99.90
13231;DHT22;6681;53.254;10.398;2023-06-14T00:37:30;17.60;1.00
13231;DHT22;6681;53.254;10.398;2023-06-14T00:39:56;17.60;99.90
13231;DHT22;6681;53.254;10.398;2023-06-14T00:42:25;17.60;1.00
13231;DHT22;6681;53.254;10.398;2023-06-14T00:44:51;17.60;99.90
13231;DHT22;6681;53.254;10.398;2023-06-14T00:47:17;17.50;1.00
13231;DHT22;6681;53.254;10.398;2023-06-14T00:49:44;17.50;99.90
13231;DHT22;6681;53.254;10.398;2023-06-14T00:52:10;17.50;1.00
13231;DHT22;6681;53.254;10.398;2023-06-14T00:54:39;17.40;99.90
13231;DHT22;6681;53.254;10.398;2023-06-14T00:57:05;17.40;1.00
13231;DHT22;6681;53.254;10.398;2023-06-14T00:59:31;17.40;99.90
13231;DHT22;6681;53.254;10.398;2023-06-14T01:01:57;17.40;70.70
13231;DHT22;6681;53.254;10.398;2023-06-14T01:04:23;17.40;1.00
13231;DHT22;6681;53.254;10.398;2023-06-14T01:07:12;17.40;99.90
13231;DHT22;6681;53.254;10.398;2023-06-14T01:12:49;17.50;1.00
13231;DHT22;6681;53.254;10.398;2023-06-14T01:15:17;17.40;99.90
13231;DHT22;6681;53.254;10.398;2023-06-14T01:17:44;17.40;1.00
13231;DHT22;6681;53.254;10.398;2023-06-14T01:20:14;17.40;99.90
13231;DHT22;6681;53.254;10.398;2023-06-14T01:22:53;17.30;1.00
13231;DHT22;6681;53.254;10.398;2023-06-14T01:25:22;17.30;6.20
13231;DHT22;6681;53.254;10.398;2023-06-14T01:27:49;17.30;99.90
13231;DHT22;6681;53.254;10.398;2023-06-14T01:30:17;17.20;1.00
13231;DHT22;6681;53.254;10.398;2023-06-14T01:32:44;17.30;1.00
13231;DHT22;6681;53.254;10.398;2023-06-14T01:35:10;17.20;1.00
13231;DHT22;6681;53.254;10.398;2023-06-14T01:37:36;17.20;99.90
13231;DHT22;6681;53.254;10.398;2023-06-14T01:40:07;19.30;99.90
13231;DHT22;6681;53.254;10.398;2023-06-14T01:42:36;17.10;99.90
13231;DHT22;6681;53.254;10.398;2023-06-14T01:45:04;17.10;1.00
13231;DHT22;6681;53.254;10.398;2023-06-14T01:47:31;17.10;99.90
13231;DHT22;6681;53.254;10.398;2023-06-14T01:49:58;17.10;99.90
13231;DHT22;6681;53.254;10.398;2023-06-14T01:52:24;17.00;99.90
13231;DHT22;6681;53.254;10.398;2023-06-14T01:54:50;17.00;1.00
13231;DHT22;6681;53.254;10.398;2023-06-14T01:57:16;17.00;1.00
13231;DHT22;6681;53.254;10.398;2023-06-14T01:59:42;17.10;99.90
13231;DHT22;6681;53.254;10.398;2023-06-14T02:02:07;17.10;99.90
13231;DHT22;6681;53.254;10.398;2023-06-14T02:04:33;17.10;1.00
13231;DHT22;6681;53.254;10.398;2023-06-14T02:06:59;17.00;99.90
13231;DHT22;6681;53.254;10.398;2023-06-14T02:09:25;17.00;1.00
13231;DHT22;6681;53.254;10.398;2023-06-14T02:11:51;16.90;1.00
13231;DHT22;6681;53.254;10.398;2023-06-14T02:14:16;16.80;99.90
13231;DHT22;6681;53.254;10.398;2023-06-14T02:16:43;16.80;99.90
13231;DHT22;6681;53.254;10.398;2023-06-14T02:19:15;16.80;1.00
13231;DHT22;6681;53.254;10.398;2023-06-14T02:21:42;16.70;99.90
13231;DHT22;6681;53.254;10.398;2023-06-14T02:24:08;16.50;99.90
13231;DHT22;6681;53.254;10.398;2023-06-14T02:26:33;16.50;71.60
13231;DHT22;6681;53.254;10.398;2023-06-14T02:28:59;16.50;1.00
13231;DHT22;6681;53.254;10.398;2023-06-14T02:31:25;16.50;24.50
13231;DHT22;6681;53.254;10.398;2023-06-14T02:33:51;16.40;99.90
13231;DHT22;6681;53.254;10.398;2023-06-14T02:36:17;16.40;1.00
13231;DHT22;6681;53.254;10.398;2023-06-14T02:38:42;16.30;1.00
13231;DHT22;6681;53.254;10.398;2023-06-14T02:41:08;16.30;1.00
13231;DHT22;6681;53.254;10.398;2023-06-14T02:43:33;16.30;1.00
13231;DHT22;6681;53.254;10.398;2023-06-14T02:45:59;16.40;73.60
13231;DHT22;6681;53.254;10.398;2023-06-14T02:48:25;16.40;1.00
13231;DHT22;6681;53.254;10.398;2023-06-14T02:50:50;16.40;99.90
13231;DHT22;6681;53.254;10.398;2023-06-14T02:53:16;16.50;1.00
13231;DHT22;6681;53.254;10.398;2023-06-14T02:55:42;16.50;99.90
13231;DHT22;6681;53.254;10.398;2023-06-14T02:58:08;16.50;99.90
13231;DHT22;6681;53.254;10.398;2023-06-14T03:00:34;16.50;99.90
13231;DHT22;6681;53.254;10.398;2023-06-14T03:03:00;16.50;1.00
13231;DHT22;6681;53.254;10.398;2023-06-14T03:05:27;16.40;99.90
13231;DHT22;6681;53.254;10.398;2023-06-14T03:07:53;16.40;99.90
13231;DHT22;6681;53.254;10.398;2023-06-14T03:10:20;16.40;1.00
13231;DHT22;6681;53.254;10.398;2023-06-14T03:12:47;16.30;1.00
13231;DHT22;6681;53.254;10.398;2023-06-14T03:15:13;16.40;36.70
13231;DHT22;6681;53.254;10.398;2023-06-14T03:17:39;16.40;99.90
13231;DHT22;6681;53.254;10.398;2023-06-14T03:20:05;16.30;99.90
13231;DHT22;6681;53.254;10.398;2023-06-14T03:22:31;16.40;99.90
13231;DHT22;6681;53.254;10.398;2023-06-14T03:24:59;16.30;1.00
13231;DHT22;6681;53.254;10.398;2023-06-14T03:27:25;16.30;99.90
13231;DHT22;6681;53.254;10.398;2023-06-14T03:29:54;16.30;99.90
13231;DHT22;6681;53.254;10.398;2023-06-14T03:32:19;16.20;48.40
13231;DHT22;6681;53.254;10.398;2023-06-14T03:34:45;16.20;99.90
13231;DHT22;6681;53.254;10.398;2023-06-14T03:37:11;16.10;1.00
13231;DHT22;6681;53.254;10.398;2023-06-14T03:39:37;16.10;1.00
13231;DHT22;6681;53.254;10.398;2023-06-14T03:42:03;16.00;99.90
13231;DHT22;6681;53.254;10.398;2023-06-14T03:44:29;16.00;1.00
13231;DHT22;6681;53.254;10.398;2023-06-14T03:46:54;16.00;99.90
13231;DHT22;6681;53.254;10.398;2023-06-14T03:49:20;15.90;93.50
13231;DHT22;6681;53.254;10.398;2023-06-14T03:51:46;15.90;1.00
13231;DHT22;6681;53.254;10.398;2023-06-14T03:54:16;15.80;1.00
13231;DHT22;6681;53.254;10.398;2023-06-14T03:56:42;15.80;99.90
13231;DHT22;6681;53.254;10.398;2023-06-14T03:59:07;15.80;99.90
13231;DHT22;6681;53.254;10.398;2023-06-14T04:01:33;15.80;93.70
13231;DHT22;6681;53.254;10.398;2023-06-14T04:03:59;15.70;99.90
13231;DHT22;6681;53.254;10.398;2023-06-14T04:06:25;15.70;1.00
13231;DHT22;6681;53.254;10.398;2023-06-14T04:08:57;15.70;1.00
13231;DHT22;6681;53.254;10.398;2023-06-14T04:11:29;15.60;99.90
13231;DHT22;6681;53.254;10.398;2023-06-14T04:13:55;15.60;1.00
13231;DHT22;6681;53.254;10.398;2023-06-14T04:16:22;15.60;99.90
13231;DHT22;6681;53.254;10.398;2023-06-14T04:18:47;15.70;99.90
13231;DHT22;6681;53.254;10.398;2023-06-14T04:21:16;15.70;99.90
13231;DHT22;6681;53.254;10.398;2023-06-14T04:23:42;15.80;1.00
13231;DHT22;6681;53.254;10.398;2023-06-14T04:26:09;15.70;99.90
13231;DHT22;6681;53.254;10.398;2023-06-14T04:28:36;15.70;99.90
13231;DHT22;6681;53.254;10.398;2023-06-14T04:31:06;15.70;1.00
13231;DHT22;6681;53.254;10.398;2023-06-14T04:33:37;15.70;1.00
13231;DHT22;6681;53.254;10.398;2023-06-14T04:36:10;15.70;99.90
13231;DHT22;6681;53.254;10.398;2023-06-14T04:38:42;15.70;99.90
13231;DHT22;6681;53.254;10.398;2023-06-14T04:41:10;15.70;1.00
13231;DHT22;6681;53.254;10.398;2023-06-14T04:43:37;15.60;1.00
13231;DHT22;6681;53.254;10.398;2023-06-14T04:46:04;15.70;1.00
13231;DHT22;6681;53.254;10.398;2023-06-14T04:48:31;15.60;1.00
13231;DHT22;6681;53.254;10.398;2023-06-14T04:50:56;15.60;1.00
13231;DHT22;6681;53.254;10.398;2023-06-14T04:53:22;15.60;77.10
13231;DHT22;6681;53.254;10.398;2023-06-14T04:55:49;15.60;1.00
13231;DHT22;6681;53.254;10.398;2023-06-14T04:58:15;15.70;1.00
13231;DHT22;6681;53.254;10.398;2023-06-14T05:00:41;15.60;99.90
13231;DHT22;6681;53.254;10.398;2023-06-14T05:03:09;15.70;1.00
13231;DHT22;6681;53.254;10.398;2023-06-14T05:05:34;15.70;1.00
13231;DHT22;6681;53.254;10.398;2023-06-14T05:08:00;15.70;99.90
13231;DHT22;6681;53.254;10.398;2023-06-14T05:10:26;15.80;46.70
13231;DHT22;6681;53.254;10.398;2023-06-14T05:12:51;15.80;1.00
13231;DHT22;6681;53.254;10.398;2023-06-14T05:15:18;15.80;99.90
13231;DHT22;6681;53.254;10.398;2023-06-14T05:17:45;15.90;1.00
13231;DHT22;6681;53.254;10.398;2023-06-14T05:20:18;16.00;33.60
13231;DHT22;6681;53.254;10.398;2023-06-14T05:22:44;16.00;1.00
13231;DHT22;6681;53.254;10.398;2023-06-14T05:25:09;16.00;1.00
13231;DHT22;6681;53.254;10.398;2023-06-14T05:27:35;16.20;99.90
13231;DHT22;6681;53.254;10.398;2023-06-14T05:30:02;16.10;99.90
13231;DHT22;6681;53.254;10.398;2023-06-14T05:32:29;16.10;99.90
13231;DHT22;6681;53.254;10.398;2023-06-14T05:34:55;16.20;99.90
13231;DHT22;6681;53.254;10.398;2023-06-14T05:37:22;16.30;99.90
13231;DHT22;6681;53.254;10.398;2023-06-14T05:39:47;16.30;99.90
13231;DHT22;6681;53.254;10.398;2023-06-14T05:42:13;16.30;99.90
13231;DHT22;6681;53.254;10.398;2023-06-14T05:44:39;16.30;99.90
13231;DHT22;6681;53.254;10.398;2023-06-14T05:47:04;16.30;1.00
13231;DHT22;6681;53.254;10.398;2023-06-14T05:49:30;16.30;1.00
13231;DHT22;6681;53.254;10.398;2023-06-14T05:51:56;16.40;93.00
13231;DHT22;6681;53.254;10.398;2023-06-14T05:54:21;16.40;90.60
13231;DHT22;6681;53.254;10.398;2023-06-14T05:56:47;16.50;99.90
13231;DHT22;6681;53.254;10.398;2023-06-14T05:59:13;16.50;99.90
13231;DHT22;6681;53.254;10.398;2023-06-14T06:01:38;16.50;99.90
13231;DHT22;6681;53.254;10.398;2023-06-14T06:04:05;16.60;99.90
13231;DHT22;6681;53.254;10.398;2023-06-14T06:06:31;16.60;99.90
13231;DHT22;6681;53.254;10.398;2023-06-14T06:08:58;16.60;99.90
13231;DHT22;6681;53.254;10.398;2023-06-14T06:11:23;16.70;1.00
13231;DHT22;6681;53.254;10.398;2023-06-14T06:13:49;16.70;99.90
13231;DHT22;6681;53.254;10.398;2023-06-14T06:16:15;16.80;1.00
13231;DHT22;6681;53.254;10.398;2023-06-14T06:18:40;16.80;1.00
13231;DHT22;6681;53.254;10.398;2023-06-14T06:21:06;16.90;1.00
13231;DHT22;6681;53.254;10.398;2023-06-14T06:23:32;17.00;99.90
13231;DHT22;6681;53.254;10.398;2023-06-14T06:25:57;18.20;1.00
13231;DHT22;6681;53.254;10.398;2023-06-14T06:28:23;17.10;1.00
13231;DHT22;6681;53.254;10.398;2023-06-14T06:30:49;17.10;99.90
13231;DHT22;6681;53.254;10.398;2023-06-14T06:33:16;17.20;99.90
13231;DHT22;6681;53.254;10.398;2023-06-14T06:35:41;17.30;1.00
13231;DHT22;6681;53.254;10.398;2023-06-14T06:38:08;17.40;99.90
13231;DHT22;6681;53.254;10.398;2023-06-14T06:40:35;17.40;1.00
13231;DHT22;6681;53.254;10.398;2023-06-14T06:43:02;17.50;1.00
13231;DHT22;6681;53.254;10.398;2023-06-14T06:45:28;17.60;1.00
13231;DHT22;6681;53.254;10.398;2023-06-14T06:47:54;17.60;1.00
13231;DHT22;6681;53.254;10.398;2023-06-14T06:50:21;17.80;99.90
13231;DHT22;6681;53.254;10.398;2023-06-14T06:52:48;17.80;1.00
13231;DHT22;6681;53.254;10.398;2023-06-14T06:55:14;17.90;1.00
13231;DHT22;6681;53.254;10.398;2023-06-14T06:57:40;18.00;1.00
13231;DHT22;6681;53.254;10.398;2023-06-14T07:00:07;18.10;1.00
13231;DHT22;6681;53.254;10.398;2023-06-14T07:02:36;18.10;1.00
13231;DHT22;6681;53.254;10.398;2023-06-14T07:05:02;18.20;1.00
13231;DHT22;6681;53.254;10.398;2023-06-14T07:07:27;18.20;99.90
13231;DHT22;6681;53.254;10.398;2023-06-14T07:09:53;18.20;76.60
13231;DHT22;6681;53.254;10.398;2023-06-14T07:12:19;18.30;99.90
13231;DHT22;6681;53.254;10.398;2023-06-14T07:14:45;18.30;1.00
13231;DHT22;6681;53.254;10.398;2023-06-14T07:17:11;18.40;84.00
13231;DHT22;6681;53.254;10.398;2023-06-14T07:19:36;18.50;1.00
13231;DHT22;6681;53.254;10.398;2023-06-14T07:22:02;18.60;99.90
13231;DHT22;6681;53.254;10.398;2023-06-14T07:24:27;18.60;1.00
13231;DHT22;6681;53.254;10.398;2023-06-14T07:26:54;18.80;99.90
13231;DHT22;6681;53.254;10.398;2023-06-14T07:29:20;18.90;15.40
13231;DHT22;6681;53.254;10.398;2023-06-14T07:31:47;19.00;1.00
13231;DHT22;6681;53.254;10.398;2023-06-14T07:34:13;19.10;94.50
13231;DHT22;6681;53.254;10.398;2023-06-14T07:36:38;19.20;99.90
13231;DHT22;6681;53.254;10.398;2023-06-14T07:39:04;19.30;74.50
13231;DHT22;6681;53.254;10.398;2023-06-14T07:41:32;19.50;1.00
13231;DHT22;6681;53.254;10.398;2023-06-14T07:43:58;19.60;1.00
13231;DHT22;6681;53.254;10.398;2023-06-14T07:46:23;19.70;1.00
13231;DHT22;6681;53.254;10.398;2023-06-14T07:48:49;19.70;1.00
13231;DHT22;6681;53.254;10.398;2023-06-14T07:51:15;19.80;1.00
13231;DHT22;6681;53.254;10.398;2023-06-14T07:53:40;20.70;99.90
13231;DHT22;6681;53.254;10.398;2023-06-14T07:56:07;20.00;99.90
13231;DHT22;6681;53.254;10.398;2023-06-14T07:58:33;20.20;1.00
13231;DHT22;6681;53.254;10.398;2023-06-14T08:00:58;20.30;23.90
13231;DHT22;6681;53.254;10.398;2023-06-14T08:03:25;20.40;24.80
13231;DHT22;6681;53.254;10.398;2023-06-14T08:05:51;20.50;1.00
13231;DHT22;6681;53.254;10.398;2023-06-14T08:08:17;20.60;1.00
13231;DHT22;6681;53.254;10.398;2023-06-14T08:10:44;20.70;1.00
13231;DHT22;6681;53.254;10.398;2023-06-14T08:13:10;20.80;1.00
13231;DHT22;6681;53.254;10.398;2023-06-14T08:15:35;20.90;1.00
13231;DHT22;6681;53.254;10.398;2023-06-14T08:18:01;21.00;99.90
13231;DHT22;6681;53.254;10.398;2023-06-14T08:20:27;21.10;99.90
13231;DHT22;6681;53.254;10.398;2023-06-14T08:22:53;21.20;99.90
13231;DHT22;6681;53.254;10.398;2023-06-14T08:25:22;21.30;99.90
13231;DHT22;6681;53.254;10.398;2023-06-14T08:27:48;21.30;1.00
13231;DHT22;6681;53.254;10.398;2023-06-14T08:30:14;21.40;1.00
13231;DHT22;6681;53.254;10.398;2023-06-14T08:32:39;21.40;99.90
13231;DHT22;6681;53.254;10.398;2023-06-14T08:35:05;21.50;99.90
13231;DHT22;6681;53.254;10.398;2023-06-14T08:37:32;21.60;99.90
13231;DHT22;6681;53.254;10.398;2023-06-14T08:40:00;21.60;99.90
13231;DHT22;6681;53.254;10.398;2023-06-14T08:42:26;21.70;1.00
13231;DHT22;6681;53.254;10.398;2023-06-14T08:44:52;21.80;99.90
13231;DHT22;6681;53.254;10.398;2023-06-14T08:47:17;21.90;99.90
13231;DHT22;6681;53.254;10.398;2023-06-14T08:49:46;21.90;99.90
13231;DHT22;6681;53.254;10.398;2023-06-14T08:52:13;22.00;99.90
13231;DHT22;6681;53.254;10.398;2023-06-14T08:54:44;22.00;99.90
13231;DHT22;6681;53.254;10.398;2023-06-14T08:57:11;22.10;99.90
13231;DHT22;6681;53.254;10.398;2023-06-14T08:59:45;22.20;99.90
13231;DHT22;6681;53.254;10.398;2023-06-14T09:02:12;22.30;99.90
13231;DHT22;6681;53.254;10.398;2023-06-14T09:04:39;22.40;99.90
13231;DHT22;6681;53.254;10.398;2023-06-14T09:07:06;22.40;99.90
13231;DHT22;6681;53.254;10.398;2023-06-14T09:09:32;22.50;99.90
13231;DHT22;6681;53.254;10.398;2023-06-14T09:11:57;22.60;99.90
13231;DHT22;6681;53.254;10.398;2023-06-14T09:14:26;22.80;99.90
13231;DHT22;6681;53.254;10.398;2023-06-14T09:16:53;22.80;75.30
13231;DHT22;6681;53.254;10.398;2023-06-14T09:19:23;22.90;72.30
13231;DHT22;6681;53.254;10.398;2023-06-14T09:21:50;23.00;99.90
13231;DHT22;6681;53.254;10.398;2023-06-14T09:24:17;23.00;35.80
13231;DHT22;6681;53.254;10.398;2023-06-14T09:26:42;23.10;1.00
13231;DHT22;6681;53.254;10.398;2023-06-14T09:29:09;23.20;29.50
13231;DHT22;6681;53.254;10.398;2023-06-14T09:31:35;23.30;1.00
13231;DHT22;6681;53.254;10.398;2023-06-14T09:34:02;23.30;1.00
13231;DHT22;6681;53.254;10.398;2023-06-14T09:36:28;23.50;1.00
13231;DHT22;6681;53.254;10.398;2023-06-14T09:39:02;23.50;1.00
13231;DHT22;6681;53.254;10.398;2023-06-14T09:41:41;23.50;1.00
13231;DHT22;6681;53.254;10.398;2023-06-14T09:44:09;23.40;1.00
13231;DHT22;6681;53.254;10.398;2023-06-14T09:46:35;23.30;1.00
13231;DHT22;6681;53.254;10.398;2023-06-14T09:49:02;23.50;1.00
13231;DHT22;6681;53.254;10.398;2023-06-14T09:51:29;23.50;1.00
13231;DHT22;6681;53.254;10.398;2023-06-14T09:54:02;23.60;1.00
13231;DHT22;6681;53.254;10.398;2023-06-14T09:56:34;23.80;1.00
13231;DHT22;6681;53.254;10.398;2023-06-14T09:59:02;23.90;1.00
13231;DHT22;6681;53.254;10.398;2023-06-14T10:01:31;23.90;1.00
13231;DHT22;6681;53.254;10.398;2023-06-14T10:04:05;24.00;1.00
13231;DHT22;6681;53.254;10.398;2023-06-14T10:06:32;24.10;1.00
13231;DHT22;6681;53.254;10.398;2023-06-14T10:08:59;24.10;1.00
13231;DHT22;6681;53.254;10.398;2023-06-14T10:11:28;24.20;1.00
13231;DHT22;6681;53.254;10.398;2023-06-14T10:13:58;24.30;1.00
13231;DHT22;6681;53.254;10.398;2023-06-14T10:16:32;24.40;1.00
13231;DHT22;6681;53.254;10.398;2023-06-14T10:19:07;24.60;1.00
13231;DHT22;6681;53.254;10.398;2023-06-14T10:24:40;24.70;1.00
13231;DHT22;6681;53.254;10.398;2023-06-14T10:27:07;24.50;1.00
13231;DHT22;6681;53.254;10.398;2023-06-14T10:32:24;24.60;1.00
13231;DHT22;6681;53.254;10.398;2023-06-14T10:35:06;24.70;1.00
13231;DHT22;6681;53.254;10.398;2023-06-14T10:37:32;25.00;1.00
13231;DHT22;6681;53.254;10.398;2023-06-14T10:39:58;24.90;1.00
13231;DHT22;6681;53.254;10.398;2023-06-14T10:42:31;24.80;1.00
13231;DHT22;6681;53.254;10.398;2023-06-14T10:44:58;24.90;1.00
13231;DHT22;6681;53.254;10.398;2023-06-14T10:47:28;25.10;1.00
13231;DHT22;6681;53.254;10.398;2023-06-14T10:50:08;25.20;1.00
13231;DHT22;6681;53.254;10.398;2023-06-14T10:52:38;25.20;1.00
13231;DHT22;6681;53.254;10.398;2023-06-14T10:55:09;25.10;1.00
13231;DHT22;6681;53.254;10.398;2023-06-14T10:57:51;25.10;1.00
13231;DHT22;6681;53.254;10.398;2023-06-14T11:00:18;25.00;1.00
13231;DHT22;6681;53.254;10.398;2023-06-14T11:05:53;24.70;1.00
13231;DHT22;6681;53.254;10.398;2023-06-14T11:08:36;24.50;1.00
13231;DHT22;6681;53.254;10.398;2023-06-14T11:11:09;24.40;1.00
13231;DHT22;6681;53.254;10.398;2023-06-14T11:13:38;24.20;1.00
13231;DHT22;6681;53.254;10.398;2023-06-14T11:16:11;24.20;1.00
13231;DHT22;6681;53.254;10.398;2023-06-14T11:18:37;24.20;1.00
13231;DHT22;6681;53.254;10.398;2023-06-14T11:21:03;24.40;1.00
13231;DHT22;6681;53.254;10.398;2023-06-14T11:23:28;24.50;1.00
13231;DHT22;6681;53.254;10.398;2023-06-14T11:25:54;24.60;1.00
13231;DHT22;6681;53.254;10.398;2023-06-14T11:28:20;24.90;1.00
13231;DHT22;6681;53.254;10.398;2023-06-14T11:30:47;25.20;1.00
13231;DHT22;6681;53.254;10.398;2023-06-14T11:33:19;25.40;1.00
13231;DHT22;6681;53.254;10.398;2023-06-14T11:35:45;25.30;1.00
13231;DHT22;6681;53.254;10.398;2023-06-14T11:38:11;25.10;1.00
13231;DHT22;6681;53.254;10.398;2023-06-14T11:40:38;25.10;1.00
13231;DHT22;6681;53.254;10.398;2023-06-14T11:43:04;25.00;1.00
13231;DHT22;6681;53.254;10.398;2023-06-14T11:45:30;25.00;1.00
13231;DHT22;6681;53.254;10.398;2023-06-14T11:47:57;25.10;1.00
13231;DHT22;6681;53.254;10.398;2023-06-14T11:50:24;25.40;1.00
13231;DHT22;6681;53.254;10.398;2023-06-14T11:52:58;25.50;1.00
13231;DHT22;6681;53.254;10.398;2023-06-14T11:55:25;25.20;1.00
13231;DHT22;6681;53.254;10.398;2023-06-14T11:57:53;25.00;1.00
13231;DHT22;6681;53.254;10.398;2023-06-14T12:00:19;25.00;1.00
13231;DHT22;6681;53.254;10.398;2023-06-14T12:02:56;24.80;1.00
13231;DHT22;6681;53.254;10.398;2023-06-14T12:05:22;24.50;1.00
13231;DHT22;6681;53.254;10.398;2023-06-14T12:07:49;24.80;1.00
13231;DHT22;6681;53.254;10.398;2023-06-14T12:10:16;25.20;1.00
13231;DHT22;6681;53.254;10.398;2023-06-14T12:12:42;25.60;1.00
13231;DHT22;6681;53.254;10.398;2023-06-14T12:15:09;26.00;1.00
13231;DHT22;6681;53.254;10.398;2023-06-14T12:17:37;26.20;1.00
13231;DHT22;6681;53.254;10.398;2023-06-14T12:20:11;26.20;1.00
13231;DHT22;6681;53.254;10.398;2023-06-14T12:22:59;26.20;1.00
13231;DHT22;6681;53.254;10.398;2023-06-14T12:25:31;26.40;1.00
13231;DHT22;6681;53.254;10.398;2023-06-14T12:27:58;26.40;1.00
13231;DHT22;6681;53.254;10.398;2023-06-14T12:30:24;26.40;1.00
13231;DHT22;6681;53.254;10.398;2023-06-14T12:32:50;26.60;1.00
13231;DHT22;6681;53.254;10.398;2023-06-14T12:35:17;26.90;1.00
13231;DHT22;6681;53.254;10.398;2023-06-14T12:37:44;27.20;1.00
13231;DHT22;6681;53.254;10.398;2023-06-14T12:40:11;27.30;1.00
13231;DHT22;6681;53.254;10.398;2023-06-14T12:42:37;27.20;1.00
13231;DHT22;6681;53.254;10.398;2023-06-14T12:45:03;27.30;1.00
13231;DHT22;6681;53.254;10.398;2023-06-14T12:47:29;27.10;1.00
13231;DHT22;6681;53.254;10.398;2023-06-14T12:49:55;27.10;1.00
13231;DHT22;6681;53.254;10.398;2023-06-14T12:52:20;27.30;1.00
13231;DHT22;6681;53.254;10.398;2023-06-14T12:54:46;27.40;1.00
13231;DHT22;6681;53.254;10.398;2023-06-14T12:57:12;27.30;1.00
13231;DHT22;6681;53.254;10.398;2023-06-14T12:59:37;27.50;1.00
13231;DHT22;6681;53.254;10.398;2023-06-14T13:02:16;27.50;1.00
13231;DHT22;6681;53.254;10.398;2023-06-14T13:04:43;27.80;1.00
13231;DHT22;6681;53.254;10.398;2023-06-14T13:07:09;27.90;1.00
13231;DHT22;6681;53.254;10.398;2023-06-14T13:09:36;28.20;1.00
13231;DHT22;6681;53.254;10.398;2023-06-14T13:12:02;28.30;1.00
13231;DHT22;6681;53.254;10.398;2023-06-14T13:14:28;28.60;1.00
13231;DHT22;6681;53.254;10.398;2023-06-14T13:16:54;28.70;1.00
13231;DHT22;6681;53.254;10.398;2023-06-14T13:19:21;29.10;1.00
13231;DHT22;6681;53.254;10.398;2023-06-14T13:21:47;29.30;1.00
13231;DHT22;6681;53.254;10.398;2023-06-14T13:24:13;29.30;1.00
13231;DHT22;6681;53.254;10.398;2023-06-14T13:26:39;29.50;1.00
13231;DHT22;6681;53.254;10.398;2023-06-14T13:29:04;29.60;1.00
13231;DHT22;6681;53.254;10.398;2023-06-14T13:31:30;29.60;1.00
13231;DHT22;6681;53.254;10.398;2023-06-14T13:33:56;29.20;1.00
13231;DHT22;6681;53.254;10.398;2023-06-14T13:36:21;28.90;1.00
13231;DHT22;6681;53.254;10.398;2023-06-14T13:38:47;28.70;1.00
13231;DHT22;6681;53.254;10.398;2023-06-14T13:41:13;28.20;1.00
13231;DHT22;6681;53.254;10.398;2023-06-14T13:43:38;28.40;1.00
13231;DHT22;6681;53.254;10.398;2023-06-14T13:46:04;28.40;1.00
13231;DHT22;6681;53.254;10.398;2023-06-14T13:48:29;28.50;1.00
13231;DHT22;6681;53.254;10.398;2023-06-14T13:50:55;28.60;1.00
13231;DHT22;6681;53.254;10.398;2023-06-14T13:53:22;28.50;1.00
13231;DHT22;6681;53.254;10.398;2023-06-14T13:55:47;28.20;1.00
13231;DHT22;6681;53.254;10.398;2023-06-14T13:58:13;28.20;1.00
13231;DHT22;6681;53.254;10.398;2023-06-14T14:00:40;28.50;1.00
13231;DHT22;6681;53.254;10.398;2023-06-14T14:03:06;28.60;1.00
13231;DHT22;6681;53.254;10.398;2023-06-14T14:05:32;28.70;1.00
13231;DHT22;6681;53.254;10.398;2023-06-14T14:07:58;28.90;1.00
13231;DHT22;6681;53.254;10.398;2023-06-14T14:10:26;28.80;1.00
13231;DHT22;6681;53.254;10.398;2023-06-14T14:12:52;28.80;1.00
13231;DHT22;6681;53.254;10.398;2023-06-14T14:15:19;28.30;1.00
13231;DHT22;6681;53.254;10.398;2023-06-14T14:17:44;28.00;1.00
13231;DHT22;6681;53.254;10.398;2023-06-14T14:20:10;27.80;1.00
13231;DHT22;6681;53.254;10.398;2023-06-14T14:22:41;27.50;1.00
13231;DHT22;6681;53.254;10.398;2023-06-14T14:25:08;27.30;1.00
13231;DHT22;6681;53.254;10.398;2023-06-14T14:27:34;27.30;1.00
13231;DHT22;6681;53.254;10.398;2023-06-14T14:29:59;27.30;1.00
13231;DHT22;6681;53.254;10.398;2023-06-14T14:32:25;27.40;1.00
13231;DHT22;6681;53.254;10.398;2023-06-14T14:34:51;27.80;1.00
13231;DHT22;6681;53.254;10.398;2023-06-14T14:37:16;27.60;1.00
13231;DHT22;6681;53.254;10.398;2023-06-14T14:39:43;27.30;1.00
13231;DHT22;6681;53.254;10.398;2023-06-14T14:42:09;26.90;1.00
13231;DHT22;6681;53.254;10.398;2023-06-14T14:44:36;26.80;1.00
13231;DHT22;6681;53.254;10.398;2023-06-14T14:47:02;26.70;1.00
13231;DHT22;6681;53.254;10.398;2023-06-14T14:49:28;26.60;1.00
13231;DHT22;6681;53.254;10.398;2023-06-14T14:51:54;26.50;1.00
13231;DHT22;6681;53.254;10.398;2023-06-14T14:54:21;26.50;1.00
13231;DHT22;6681;53.254;10.398;2023-06-14T14:56:47;26.60;1.00
13231;DHT22;6681;53.254;10.398;2023-06-14T14:59:12;26.70;1.00
13231;DHT22;6681;53.254;10.398;2023-06-14T15:01:38;26.90;1.00
13231;DHT22;6681;53.254;10.398;2023-06-14T15:04:04;27.20;1.00
13231;DHT22;6681;53.254;10.398;2023-06-14T15:06:29;27.70;1.00
13231;DHT22;6681;53.254;10.398;2023-06-14T15:08:55;27.40;1.00
13231;DHT22;6681;53.254;10.398;2023-06-14T15:11:21;27.30;1.00
13231;DHT22;6681;53.254;10.398;2023-06-14T15:13:47;27.60;1.00
13231;DHT22;6681;53.254;10.398;2023-06-14T15:16:14;27.90;1.00
13231;DHT22;6681;53.254;10.398;2023-06-14T15:18:39;27.80;1.00
13231;DHT22;6681;53.254;10.398;2023-06-14T15:21:05;27.60;1.00
13231;DHT22;6681;53.254;10.398;2023-06-14T15:23:31;27.20;1.00
13231;DHT22;6681;53.254;10.398;2023-06-14T15:25:56;27.10;1.00
13231;DHT22;6681;53.254;10.398;2023-06-14T15:28:23;27.00;1.00
13231;DHT22;6681;53.254;10.398;2023-06-14T15:30:53;26.50;1.00
13231;DHT22;6681;53.254;10.398;2023-06-14T15:33:19;26.30;1.00
13231;DHT22;6681;53.254;10.398;2023-06-14T15:35:46;26.20;1.00
13231;DHT22;6681;53.254;10.398;2023-06-14T15:38:12;26.10;1.00
13231;DHT22;6681;53.254;10.398;2023-06-14T15:40:37;26.20;1.00
13231;DHT22;6681;53.254;10.398;2023-06-14T15:43:03;26.30;1.00
13231;DHT22;6681;53.254;10.398;2023-06-14T15:45:29;26.40;1.00
13231;DHT22;6681;53.254;10.398;2023-06-14T15:47:55;26.50;1.00
13231;DHT22;6681;53.254;10.398;2023-06-14T15:50:21;26.50;1.00